createdAt,value
2023-05-22T00:01:45.435Z,12.00
2023-05-22T00:04:21.591Z,11.50
2023-05-22T00:06:49.686Z,11.25
2023-05-22T00:09:17.566Z,12.13
2023-05-22T00:11:45.561Z,11.85
2023-05-22T00:14:13.688Z,11.65
2023-05-22T00:16:41.718Z,11.63
2023-05-22T00:19:13.701Z,12.02
2023-05-22T00:21:42.994Z,11.90
2023-05-22T00:24:11.064Z,11.85
2023-05-22T00:26:38.910Z,12.98
2023-05-22T00:29:06.736Z,11.70
2023-05-22T00:31:34.570Z,11.20
2023-05-22T00:34:02.427Z,12.18
2023-05-22T00:36:30.381Z,10.40
2023-05-22T00:38:59.468Z,12.20
2023-05-22T00:41:27.461Z,11.27
2023-05-22T00:43:55.165Z,12.50
2023-05-22T00:46:24.563Z,12.13
2023-05-22T00:48:52.905Z,11.90
2023-05-22T00:51:21.530Z,11.03
2023-05-22T00:53:49.806Z,10.80
2023-05-22T00:56:19.959Z,10.98
2023-05-22T00:58:47.724Z,11.52
2023-05-22T01:01:16.162Z,10.95
2023-05-22T01:03:45.078Z,11.38
2023-05-22T01:06:14.665Z,11.00
2023-05-22T01:08:43.488Z,11.80
2023-05-22T01:11:14.673Z,11.40
2023-05-22T01:13:47.967Z,11.67
2023-05-22T01:16:25.613Z,11.00
2023-05-22T01:19:01.166Z,11.48
2023-05-22T01:21:35.609Z,11.30
2023-05-22T01:24:37.883Z,11.07
2023-05-22T01:27:35.220Z,10.82
2023-05-22T01:30:18.535Z,11.70
2023-05-22T01:32:48.690Z,10.98
2023-05-22T01:35:18.744Z,11.60
2023-05-22T01:37:46.844Z,11.80
2023-05-22T01:40:14.909Z,11.80
2023-05-22T01:42:42.848Z,11.93
2023-05-22T01:45:12.269Z,12.00
2023-05-22T01:47:40.116Z,12.45
2023-05-22T01:50:10.246Z,12.85
2023-05-22T01:52:42.171Z,13.07
2023-05-22T01:55:14.472Z,12.35
2023-05-22T01:57:47.804Z,12.68
2023-05-22T02:00:16.584Z,11.85
2023-05-22T02:02:47.555Z,11.75
2023-05-22T02:05:18.861Z,11.88
2023-05-22T02:07:47.278Z,12.32
2023-05-22T02:10:15.778Z,11.90
2023-05-22T02:12:43.500Z,12.13
2023-05-22T02:15:11.672Z,12.40
2023-05-22T02:17:41.475Z,12.50
2023-05-22T02:20:14.474Z,11.93
2023-05-22T02:22:45.098Z,11.20
2023-05-22T02:25:14.496Z,11.95
2023-05-22T02:27:43.102Z,10.90
2023-05-22T02:30:11.832Z,11.73
2023-05-22T02:32:40.160Z,13.82
2023-05-22T02:35:08.895Z,11.18
2023-05-22T02:37:36.822Z,12.55
2023-05-22T02:40:07.275Z,12.35
2023-05-22T02:42:35.523Z,12.48
2023-05-22T02:45:03.667Z,13.88
2023-05-22T02:47:31.419Z,14.07
2023-05-22T02:49:59.240Z,14.40
2023-05-22T02:52:28.376Z,14.57
2023-05-22T02:54:56.187Z,15.77
2023-05-22T02:57:25.332Z,15.82
2023-05-22T02:59:54.166Z,17.02
2023-05-22T03:02:21.938Z,17.17
2023-05-22T03:04:49.627Z,16.95
2023-05-22T03:07:17.371Z,19.50
2023-05-22T03:09:45.102Z,19.17
2023-05-22T03:12:12.851Z,20.48
2023-05-22T03:14:42.040Z,20.42
2023-05-22T03:17:09.734Z,21.90
2023-05-22T03:19:37.615Z,21.48
2023-05-22T03:22:06.615Z,22.58
2023-05-22T03:24:34.403Z,21.88
2023-05-22T03:27:02.118Z,22.45
2023-05-22T03:29:29.862Z,22.95
2023-05-22T03:31:59.969Z,24.05
2023-05-22T03:34:30.005Z,24.23
2023-05-22T03:36:58.063Z,24.55
2023-05-22T03:39:25.860Z,24.90
2023-05-22T03:41:53.586Z,26.70
2023-05-22T03:44:21.586Z,26.13
2023-05-22T03:46:49.263Z,26.50
2023-05-22T03:49:18.408Z,25.92
2023-05-22T03:51:46.196Z,26.95
2023-05-22T03:54:13.945Z,26.67
2023-05-22T03:56:41.682Z,26.98
2023-05-22T03:59:09.611Z,26.98
2023-05-22T04:01:39.349Z,28.50
2023-05-22T04:04:07.152Z,27.87
2023-05-22T04:06:43.000Z,28.90
2023-05-22T04:09:11.922Z,29.60
2023-05-22T04:11:42.143Z,30.15
2023-05-22T04:14:10.346Z,29.65
2023-05-22T04:16:38.187Z,29.70
2023-05-22T04:19:05.951Z,29.70
2023-05-22T04:21:34.443Z,30.42
2023-05-22T04:24:07.458Z,31.88
2023-05-22T04:26:36.174Z,30.40
2023-05-22T04:29:04.017Z,30.85
2023-05-22T04:31:32.558Z,32.13
2023-05-22T04:34:00.445Z,31.80
2023-05-22T04:36:29.085Z,31.90
2023-05-22T04:38:56.901Z,32.65
2023-05-22T04:41:26.673Z,31.93
2023-05-22T04:43:54.775Z,30.65
2023-05-22T04:46:22.704Z,30.83
2023-05-22T04:48:51.054Z,31.47
2023-05-22T04:51:18.929Z,31.60
2023-05-22T04:53:49.336Z,32.33
2023-05-22T04:56:27.978Z,31.58
2023-05-22T04:59:05.436Z,32.30
2023-05-22T05:01:35.100Z,32.97
2023-05-22T05:04:03.698Z,34.47
2023-05-22T05:06:31.660Z,32.33
2023-05-22T05:08:59.688Z,33.88
2023-05-22T05:11:27.423Z,34.25
2023-05-22T05:13:55.094Z,33.97
2023-05-22T05:16:25.213Z,33.03
2023-05-22T05:18:53.469Z,34.00
2023-05-22T05:21:21.446Z,35.30
2023-05-22T05:23:49.191Z,34.58
2023-05-22T05:26:16.947Z,36.83
2023-05-22T05:28:44.680Z,34.42
2023-05-22T05:31:12.599Z,36.17
2023-05-22T05:33:41.812Z,36.80
2023-05-22T05:36:10.059Z,33.67
2023-05-22T05:38:37.992Z,35.10
2023-05-22T05:41:06.025Z,34.03
2023-05-22T05:43:33.849Z,34.72
2023-05-22T05:46:01.830Z,33.60
2023-05-22T05:48:29.606Z,33.75
2023-05-22T05:50:58.743Z,35.40
2023-05-22T05:53:26.500Z,34.60
2023-05-22T05:55:54.293Z,33.70
2023-05-22T05:58:22.027Z,35.83
2023-05-22T06:00:49.835Z,33.88
2023-05-22T06:03:18.197Z,34.90
2023-05-22T06:05:47.010Z,34.67
2023-05-22T06:08:16.098Z,34.22
2023-05-22T06:10:43.800Z,32.65
2023-05-22T06:13:11.658Z,34.58
2023-05-22T06:15:39.452Z,33.60
2023-05-22T06:18:07.475Z,35.13
2023-05-22T06:20:35.301Z,37.67
2023-05-22T06:23:03.066Z,35.63
2023-05-22T06:25:32.227Z,37.70
2023-05-22T06:28:00.836Z,35.30
2023-05-22T06:30:39.459Z,35.60
2023-05-22T06:33:11.574Z,37.55
2023-05-22T06:35:39.522Z,36.90
2023-05-22T06:38:07.255Z,35.58
2023-05-22T06:40:36.443Z,35.53
2023-05-22T06:43:04.194Z,36.73
2023-05-22T06:45:31.959Z,36.92
2023-05-22T06:47:59.862Z,37.07
2023-05-22T06:50:27.660Z,38.35
2023-05-22T06:52:55.454Z,36.27
2023-05-22T06:55:23.633Z,36.15
2023-05-22T06:57:52.864Z,36.83
2023-05-22T07:00:21.886Z,34.92
2023-05-22T07:02:49.925Z,35.08
2023-05-22T07:05:18.206Z,36.03
2023-05-22T07:07:46.378Z,34.97
2023-05-22T07:10:14.670Z,33.08
2023-05-22T07:12:42.452Z,33.25
2023-05-22T07:15:14.457Z,31.90
2023-05-22T07:17:43.291Z,31.23
2023-05-22T07:20:12.029Z,31.15
2023-05-22T07:24:44.728Z,30.77
2023-05-22T07:27:12.465Z,30.92
2023-05-22T07:29:40.223Z,28.73
2023-05-22T07:32:08.903Z,26.42
2023-05-22T07:34:37.326Z,25.83
2023-05-22T07:37:08.352Z,25.50
2023-05-22T07:39:36.361Z,22.27
2023-05-22T07:42:06.164Z,21.02
2023-05-22T07:44:34.318Z,19.87
2023-05-22T07:47:02.116Z,17.02
2023-05-22T07:49:29.836Z,20.92
2023-05-22T07:51:57.542Z,19.77
2023-05-22T07:54:25.255Z,17.40
2023-05-22T07:56:53.337Z,17.63
2023-05-22T07:59:23.792Z,17.08
2023-05-22T08:03:41.690Z,18.20
2023-05-22T08:06:10.052Z,18.57
2023-05-22T08:08:37.851Z,19.27
2023-05-22T08:11:06.129Z,17.40
2023-05-22T08:13:34.280Z,17.55
2023-05-22T08:16:02.202Z,17.17
2023-05-22T08:18:30.317Z,16.95
2023-05-22T08:21:00.550Z,18.60
2023-05-22T08:23:28.392Z,18.73
2023-05-22T08:25:56.160Z,18.83
2023-05-22T08:28:23.927Z,18.58
2023-05-22T08:30:51.885Z,20.63
2023-05-22T08:33:20.137Z,20.05
2023-05-22T08:35:47.998Z,21.25
2023-05-22T08:38:17.597Z,20.15
2023-05-22T08:40:49.412Z,19.80
2023-05-22T08:43:17.127Z,18.77
2023-05-22T08:45:44.934Z,17.63
2023-05-22T08:48:14.545Z,15.95
2023-05-22T08:50:43.228Z,13.95
2023-05-22T08:53:14.845Z,13.93
2023-05-22T08:55:43.966Z,18.33
2023-05-22T08:58:12.609Z,14.95
2023-05-22T09:00:41.033Z,14.95
2023-05-22T09:03:10.257Z,15.02
2023-05-22T09:05:39.318Z,19.50
2023-05-22T09:08:19.157Z,17.25
2023-05-22T09:12:15.482Z,12.98
2023-05-22T09:14:43.819Z,12.52
2023-05-22T09:17:12.799Z,13.60
2023-05-22T09:19:44.825Z,10.05
2023-05-22T09:22:12.608Z,12.30
2023-05-22T09:24:42.089Z,12.48
2023-05-22T09:27:10.701Z,12.43
2023-05-22T09:29:50.325Z,13.83
2023-05-22T09:32:18.607Z,14.52
2023-05-22T09:34:47.373Z,14.23
2023-05-22T09:37:15.207Z,14.45
2023-05-22T09:39:45.075Z,13.87
2023-05-22T09:42:15.009Z,14.60
2023-05-22T09:44:44.182Z,15.05
2023-05-22T09:47:13.342Z,16.30
2023-05-22T09:49:43.114Z,16.85
2023-05-22T09:52:12.562Z,16.48
2023-05-22T09:54:44.755Z,16.67
2023-05-22T09:57:15.124Z,18.92
2023-05-22T09:59:43.820Z,17.67
2023-05-22T10:02:13.370Z,16.42
2023-05-22T10:04:42.549Z,17.98
2023-05-22T10:07:12.041Z,17.85
2023-05-22T10:09:40.755Z,17.23
2023-05-22T10:12:10.362Z,18.87
2023-05-22T10:14:38.093Z,19.45
2023-05-22T10:17:06.956Z,22.85
2023-05-22T10:19:40.348Z,22.35
2023-05-22T10:22:09.903Z,23.70
2023-05-22T10:24:38.354Z,22.75
2023-05-22T10:27:06.426Z,24.20
2023-05-22T10:29:37.571Z,24.93
2023-05-22T10:32:08.992Z,24.55
2023-05-22T10:34:43.603Z,24.13
2023-05-22T10:37:22.472Z,23.27
2023-05-22T10:40:00.745Z,23.88
2023-05-22T10:42:30.945Z,21.33
2023-05-22T10:44:59.689Z,22.60
2023-05-22T10:47:27.484Z,20.77
2023-05-22T10:50:06.197Z,20.70
2023-05-22T10:52:33.929Z,23.35
2023-05-22T10:55:02.336Z,22.45
2023-05-22T10:57:34.440Z,21.83
2023-05-22T13:30:57.812Z,11.90
2023-05-22T13:33:36.816Z,11.75
2023-05-22T13:36:05.557Z,12.23
2023-05-22T13:38:33.624Z,11.80
2023-05-22T13:41:01.329Z,11.43
2023-05-22T13:43:29.026Z,10.00
2023-05-22T13:45:56.745Z,9.65
2023-05-22T13:48:24.463Z,10.30
2023-05-22T13:50:53.584Z,11.02
2023-05-22T13:53:21.286Z,11.60
2023-05-22T13:55:49.017Z,9.57
2023-05-22T13:58:16.768Z,9.87
2023-05-22T14:00:44.477Z,8.95
2023-05-22T14:03:17.412Z,10.07
2023-05-22T14:05:45.452Z,9.13
2023-05-22T14:08:14.558Z,8.80
2023-05-22T14:10:42.328Z,10.18
2023-05-22T14:13:10.034Z,9.40
2023-05-22T14:15:37.816Z,9.45
2023-05-22T14:18:05.737Z,9.13
2023-05-22T14:20:33.416Z,9.85
2023-05-22T14:23:01.121Z,9.73
2023-05-22T14:25:30.287Z,9.82
2023-05-22T14:27:58.113Z,9.65
2023-05-22T14:30:25.782Z,9.65
2023-05-22T14:35:31.389Z,9.48
2023-05-22T14:37:59.306Z,9.65
2023-05-22T14:40:27.033Z,10.20
2023-05-22T14:42:54.760Z,10.00
2023-05-22T14:46:02.471Z,10.75
2023-05-22T14:48:30.192Z,13.82
2023-05-22T14:50:58.240Z,29.77
2023-05-22T14:53:26.005Z,34.13
2023-05-22T14:55:53.731Z,14.57
2023-05-22T15:00:54.115Z,0.13
2023-05-22T15:03:23.519Z,0.65
2023-05-22T15:05:51.221Z,0.05
2023-05-22T15:08:20.398Z,0.00
2023-05-22T16:03:34.359Z,0.20
2023-05-22T16:06:02.271Z,0.68
2023-05-22T16:08:29.970Z,0.20
2023-05-22T16:11:00.706Z,0.05
2023-05-22T16:13:28.614Z,0.30
2023-05-22T16:15:56.558Z,0.20
2023-05-22T16:18:24.356Z,0.00
2023-05-22T16:20:53.445Z,0.10
2023-05-22T16:23:21.156Z,0.00
2023-05-22T16:25:50.828Z,0.00
2023-05-22T16:28:18.964Z,0.20
2023-05-22T16:30:46.703Z,0.10
2023-05-22T16:33:14.476Z,14.93
2023-05-22T16:35:46.868Z,13.07
2023-05-22T16:38:16.176Z,11.25
2023-05-22T16:40:43.930Z,9.35
2023-05-22T16:43:13.723Z,9.73
2023-05-22T16:45:46.467Z,9.02
2023-05-22T16:48:14.366Z,8.57
2023-05-22T16:50:42.462Z,8.23
2023-05-22T16:53:10.220Z,7.20
2023-05-22T16:55:39.594Z,9.05
2023-05-22T16:58:08.991Z,9.27
2023-05-22T17:00:37.557Z,5.17
2023-05-22T17:03:06.743Z,4.20
2023-05-22T17:05:34.825Z,4.60
2023-05-22T17:08:03.075Z,5.35
2023-05-22T17:10:30.851Z,5.10
2023-05-22T17:12:59.924Z,4.15
2023-05-22T17:15:27.682Z,4.30
2023-05-22T17:17:55.501Z,6.30
2023-05-22T17:20:23.369Z,3.30
2023-05-22T17:22:51.137Z,3.40
2023-05-22T17:25:19.003Z,3.83
2023-05-22T17:27:46.690Z,4.00
2023-05-22T17:30:15.959Z,3.08
2023-05-22T17:32:44.854Z,5.47
2023-05-22T17:35:12.633Z,3.35
2023-05-22T17:37:40.581Z,3.10
2023-05-22T17:40:09.943Z,3.50
2023-05-22T17:42:37.649Z,5.10
2023-05-22T17:45:06.021Z,2.90
2023-05-22T17:47:35.183Z,2.97
2023-05-22T17:50:03.023Z,4.35
2023-05-22T17:52:31.021Z,7.40
2023-05-22T17:54:58.741Z,7.13
2023-05-22T17:57:26.631Z,3.05
2023-05-22T17:59:54.323Z,3.30
2023-05-22T18:02:22.136Z,3.42
2023-05-22T18:04:51.272Z,8.32
2023-05-22T18:07:20.000Z,3.60
2023-05-22T18:09:48.181Z,3.37
2023-05-22T18:12:31.071Z,3.28
2023-05-22T18:14:59.809Z,3.95
2023-05-22T18:17:27.612Z,3.00
2023-05-22T18:19:56.692Z,4.25
2023-05-22T18:22:25.518Z,2.83
2023-05-22T18:24:53.226Z,2.60
2023-05-22T18:27:21.092Z,3.78
2023-05-22T18:29:50.459Z,3.35
2023-05-22T18:32:18.194Z,3.58
2023-05-22T18:34:46.521Z,3.80
2023-05-22T18:37:16.393Z,4.05
2023-05-22T18:39:44.103Z,5.32
2023-05-22T18:42:11.838Z,3.65
2023-05-22T18:44:39.573Z,3.60
2023-05-22T18:47:07.763Z,4.63
2023-05-22T18:49:35.516Z,3.90
2023-05-22T18:52:03.287Z,4.93
2023-05-22T18:54:32.388Z,3.40
2023-05-22T18:57:00.155Z,4.70
2023-05-22T18:59:27.932Z,3.28
2023-05-22T19:01:55.688Z,3.85
2023-05-22T19:04:23.679Z,2.95
2023-05-22T19:06:53.760Z,3.05
2023-05-22T19:09:22.094Z,3.97
2023-05-22T19:11:51.257Z,3.63
2023-05-22T19:14:19.103Z,3.25
2023-05-22T19:16:46.897Z,3.70
2023-05-22T19:19:14.840Z,2.80
2023-05-22T19:21:42.690Z,3.70
2023-05-22T19:24:10.542Z,3.03
2023-05-22T19:26:38.256Z,2.90
2023-05-22T19:29:07.426Z,3.47
2023-05-22T19:31:36.083Z,3.63
2023-05-22T19:34:03.761Z,3.78
2023-05-22T19:36:31.882Z,3.58
2023-05-22T19:38:59.781Z,3.40
2023-05-22T19:41:27.624Z,3.37
2023-05-22T19:43:55.384Z,4.47
2023-05-22T19:46:24.519Z,5.40
2023-05-22T19:48:52.461Z,4.25
2023-05-22T19:51:20.214Z,4.03
2023-05-22T19:53:47.948Z,3.85
2023-05-22T19:56:16.002Z,6.57
2023-05-22T19:58:43.679Z,3.35
2023-05-22T20:01:11.594Z,5.38
2023-05-22T20:03:41.090Z,4.20
2023-05-22T20:06:08.948Z,4.70
2023-05-22T20:08:37.453Z,5.25
2023-05-22T20:11:05.162Z,4.60
2023-05-22T20:13:32.947Z,4.90
2023-05-22T20:16:03.517Z,4.47
2023-05-22T20:18:31.726Z,4.72
2023-05-22T20:21:00.848Z,9.27
2023-05-22T20:23:29.812Z,4.90
2023-05-22T20:25:57.575Z,5.10
2023-05-22T20:28:26.398Z,5.25
2023-05-22T20:30:54.108Z,6.05
2023-05-22T20:33:21.887Z,5.35
2023-05-22T20:35:52.839Z,6.00
2023-05-22T20:38:22.424Z,5.80
2023-05-22T20:40:51.862Z,5.85
2023-05-22T20:43:20.021Z,6.07
2023-05-22T20:45:48.038Z,6.20
2023-05-22T20:48:16.587Z,6.38
2023-05-22T20:50:47.135Z,6.60
2023-05-22T20:53:14.983Z,7.18
2023-05-22T20:55:44.156Z,6.93
2023-05-22T20:58:11.892Z,6.78
2023-05-22T21:00:41.489Z,6.78
2023-05-22T21:03:09.430Z,7.28
2023-05-22T21:05:37.754Z,7.68
2023-05-22T21:08:05.584Z,7.75
2023-05-22T21:10:33.271Z,8.98
2023-05-22T21:13:02.395Z,8.43
2023-05-22T21:15:30.121Z,9.27
2023-05-22T21:17:57.846Z,9.80
2023-05-22T21:20:25.806Z,9.35
2023-05-22T21:22:53.507Z,9.85
2023-05-22T21:25:21.487Z,9.70
2023-05-22T21:27:49.407Z,11.03
2023-05-22T21:30:18.573Z,10.65
2023-05-22T21:32:46.310Z,10.63
2023-05-22T21:35:14.110Z,11.43
2023-05-22T21:37:41.865Z,11.38
2023-05-22T21:40:10.213Z,10.60
2023-05-22T21:42:46.521Z,11.38
2023-05-22T21:45:15.010Z,11.60
2023-05-22T21:47:44.393Z,13.18
2023-05-22T21:50:12.728Z,9.88
2023-05-22T21:52:40.586Z,9.18
2023-05-22T21:55:08.822Z,8.52
2023-05-22T21:57:37.901Z,8.27
2023-05-22T22:00:06.171Z,6.97
2023-05-22T22:02:34.025Z,6.25
2023-05-22T22:05:03.331Z,5.70
2023-05-22T22:07:31.126Z,5.30
2023-05-22T22:09:59.299Z,6.03
2023-05-22T22:12:27.069Z,5.10
2023-05-22T22:14:54.786Z,4.95
2023-05-22T22:17:23.419Z,4.60
2023-05-22T22:19:53.569Z,4.85
2023-05-22T22:22:22.836Z,5.18
2023-05-22T22:24:50.753Z,4.85
2023-05-22T22:27:19.663Z,4.93
2023-05-22T22:29:47.389Z,5.00
2023-05-22T22:32:15.207Z,4.72
2023-05-22T22:34:43.155Z,4.85
2023-05-22T22:37:11.166Z,4.43
2023-05-22T22:39:40.347Z,5.22
2023-05-22T22:42:08.706Z,4.82
2023-05-22T22:44:36.398Z,5.18
2023-05-22T22:47:04.628Z,5.20
2023-05-22T22:49:32.817Z,5.50
2023-05-22T22:52:00.847Z,5.70
2023-05-22T22:54:28.707Z,5.93
2023-05-22T22:56:58.006Z,5.55
2023-05-22T22:59:25.688Z,5.20
2023-05-22T23:01:53.663Z,5.07
2023-05-22T23:04:21.531Z,6.32
2023-05-22T23:06:49.388Z,6.20
2023-05-22T23:09:17.478Z,6.95
2023-05-22T23:11:45.272Z,6.28
2023-05-22T23:14:14.329Z,6.03
2023-05-22T23:16:42.053Z,6.22
2023-05-22T23:19:10.968Z,6.37
2023-05-22T23:21:38.852Z,6.53
2023-05-22T23:24:07.301Z,8.30
2023-05-22T23:26:35.301Z,6.57
2023-05-22T23:29:03.363Z,7.10
2023-05-22T23:31:32.536Z,7.05
2023-05-22T23:34:00.463Z,7.68
2023-05-22T23:36:28.311Z,8.18
2023-05-22T23:38:56.022Z,8.48
2023-05-22T23:41:24.437Z,7.32
2023-05-22T23:43:52.149Z,7.40
2023-05-22T23:46:21.283Z,8.65
2023-05-22T23:48:50.516Z,8.02
2023-05-22T23:51:18.741Z,7.93
2023-05-22T23:53:46.436Z,8.95
2023-05-22T23:56:14.221Z,7.82
2023-05-22T23:58:42.028Z,8.38
